createdAt,value
2023-12-15T00:01:19.497Z,92.59
2023-12-15T00:07:21.937Z,92.55
2023-12-15T00:13:24.438Z,92.79
2023-12-15T00:19:26.981Z,92.58
2023-12-15T00:25:30.384Z,91.93
2023-12-15T00:31:32.815Z,91.60
2023-12-15T00:37:36.789Z,92.02
2023-12-15T00:43:39.804Z,91.65
2023-12-15T00:49:43.217Z,92.15
2023-12-15T00:55:45.717Z,92.13
2023-12-15T01:01:47.759Z,92.57
2023-12-15T01:07:51.671Z,92.98
2023-12-15T01:13:54.100Z,92.76
2023-12-15T01:19:56.574Z,92.74
2023-12-15T01:25:59.020Z,93.34
2023-12-15T01:32:01.506Z,92.73
2023-12-15T01:38:05.046Z,92.25
2023-12-15T01:44:07.467Z,92.06
2023-12-15T01:50:10.943Z,92.44
2023-12-15T01:56:13.770Z,93.35
2023-12-15T02:02:16.205Z,93.06
2023-12-15T02:08:18.379Z,93.64
2023-12-15T02:14:20.835Z,93.62
2023-12-15T02:20:23.327Z,93.98
2023-12-15T02:26:25.794Z,94.43
2023-12-15T02:32:28.320Z,94.35
2023-12-15T02:38:31.682Z,94.98
2023-12-15T02:44:35.120Z,94.89
2023-12-15T02:50:37.642Z,95.28
2023-12-15T02:56:40.060Z,95.34
2023-12-15T03:02:43.516Z,94.98
2023-12-15T03:08:45.973Z,94.62
2023-12-15T03:14:52.516Z,95.41
2023-12-15T03:20:54.962Z,95.09
2023-12-15T03:26:57.464Z,95.14
2023-12-15T03:32:59.973Z,95.30
2023-12-15T03:39:05.355Z,95.17
2023-12-15T03:45:08.865Z,95.65
2023-12-15T03:51:14.289Z,95.85
2023-12-15T03:57:16.811Z,95.50
2023-12-15T04:03:19.245Z,96.25
2023-12-15T04:09:21.730Z,96.76
2023-12-15T04:15:24.234Z,97.53
2023-12-15T04:21:26.709Z,97.18
2023-12-15T04:27:34.001Z,97.71
2023-12-15T04:33:36.814Z,97.44
2023-12-15T04:39:39.091Z,97.33
2023-12-15T04:45:41.539Z,97.70
2023-12-15T04:51:44.029Z,97.72
2023-12-15T04:57:48.994Z,97.58
2023-12-15T05:03:52.022Z,97.30
2023-12-15T05:09:54.043Z,97.75
2023-12-15T05:15:56.946Z,97.15
2023-12-15T05:22:00.413Z,97.28
2023-12-15T05:28:02.879Z,97.60
2023-12-15T05:34:05.437Z,97.48
2023-12-15T05:40:11.812Z,97.30
2023-12-15T05:46:16.249Z,97.22
2023-12-15T05:52:18.753Z,97.26
2023-12-15T05:58:21.249Z,96.84
2023-12-15T06:04:26.719Z,97.29
2023-12-15T06:10:30.214Z,97.82
2023-12-15T06:16:32.692Z,97.79
2023-12-15T06:22:35.138Z,98.62
2023-12-15T06:28:37.611Z,98.70
2023-12-15T06:34:44.093Z,98.58
2023-12-15T06:40:46.589Z,98.64
2023-12-15T06:46:49.040Z,98.95
2023-12-15T06:52:56.522Z,99.58
2023-12-15T06:58:59.025Z,100.00
2023-12-15T07:05:01.796Z,100.00
2023-12-15T07:11:04.108Z,100.00
2023-12-15T07:17:06.553Z,100.00
2023-12-15T07:23:11.440Z,100.00
2023-12-15T07:29:13.411Z,100.00
2023-12-15T07:35:21.079Z,100.00
2023-12-15T07:41:31.411Z,100.00
2023-12-15T07:47:33.979Z,99.91
2023-12-15T07:53:41.519Z,100.00
2023-12-15T07:59:43.820Z,100.00
2023-12-15T08:05:46.275Z,100.00
2023-12-15T08:11:48.796Z,100.00
2023-12-15T08:17:52.321Z,99.80
2023-12-15T08:23:54.567Z,100.00
2023-12-15T08:29:59.071Z,99.22
2023-12-15T08:36:01.489Z,99.34
2023-12-15T08:42:03.979Z,99.00
2023-12-15T08:48:06.641Z,98.24
2023-12-15T08:54:09.897Z,97.90
2023-12-15T09:00:13.372Z,97.76
2023-12-15T09:06:26.032Z,97.83
2023-12-15T09:12:31.387Z,97.97
2023-12-15T09:18:33.947Z,97.47
2023-12-15T09:24:37.298Z,96.53
2023-12-15T09:30:39.807Z,96.44
2023-12-15T09:36:42.220Z,95.65
2023-12-15T09:42:44.740Z,95.41
2023-12-15T09:48:48.237Z,94.79
2023-12-15T09:54:51.624Z,95.08
2023-12-15T10:00:54.103Z,92.97
2023-12-15T10:06:56.546Z,92.51
2023-12-15T10:12:59.012Z,91.70
2023-12-15T10:19:04.609Z,91.52
2023-12-15T10:25:27.036Z,92.46
2023-12-15T10:31:29.516Z,91.86
2023-12-15T10:37:34.991Z,92.93
2023-12-15T10:43:40.421Z,93.54
2023-12-15T10:49:50.193Z,93.57
2023-12-15T10:55:56.877Z,92.89
2023-12-15T11:02:02.234Z,93.11
2023-12-15T11:08:05.474Z,92.73
2023-12-15T11:14:13.840Z,93.03
2023-12-15T11:20:22.512Z,93.41
2023-12-15T11:26:33.958Z,93.47
2023-12-15T11:32:36.684Z,93.05
2023-12-15T11:38:40.852Z,92.91
2023-12-15T11:44:49.279Z,92.57
2023-12-15T11:50:51.720Z,93.12
2023-12-15T11:56:57.228Z,93.11
2023-12-15T12:03:02.693Z,93.11
2023-12-15T12:09:11.162Z,92.65
2023-12-15T12:15:13.631Z,93.11
2023-12-15T12:21:17.116Z,93.37
2023-12-15T12:27:19.552Z,93.28
2023-12-15T12:33:26.279Z,92.41
2023-12-15T12:39:29.506Z,92.39
2023-12-15T12:45:41.994Z,91.20
2023-12-15T12:51:44.485Z,90.92
2023-12-15T12:57:48.922Z,90.83
2023-12-15T13:03:51.523Z,91.33
2023-12-15T13:09:56.972Z,91.16
2023-12-15T13:16:05.303Z,90.53
2023-12-15T13:22:10.812Z,90.93
2023-12-15T13:28:14.539Z,91.72
2023-12-15T13:34:20.801Z,91.98
2023-12-15T13:40:24.239Z,91.87
2023-12-15T13:46:26.690Z,92.02
2023-12-15T13:52:29.162Z,91.85
2023-12-15T13:58:31.622Z,91.76
2023-12-15T14:04:34.104Z,92.47
2023-12-15T14:10:36.597Z,91.74
2023-12-15T14:16:44.381Z,91.78
2023-12-15T14:22:49.551Z,91.57
2023-12-15T14:28:52.001Z,91.67
2023-12-15T14:34:56.999Z,92.22
2023-12-15T14:41:04.291Z,92.23
2023-12-15T14:47:08.554Z,92.27
2023-12-15T14:53:11.962Z,92.34
2023-12-15T14:59:14.443Z,92.27
2023-12-15T15:05:17.919Z,91.67
2023-12-15T15:11:20.364Z,92.19
2023-12-15T15:17:27.208Z,92.10
2023-12-15T15:23:32.345Z,92.18
2023-12-15T15:29:34.826Z,92.35
2023-12-15T15:35:37.290Z,93.25
2023-12-15T15:41:39.734Z,93.38
2023-12-15T15:47:42.483Z,92.84
2023-12-15T15:53:45.620Z,92.97
2023-12-15T15:59:48.126Z,93.50
2023-12-15T16:05:50.683Z,93.81
2023-12-15T16:11:54.033Z,93.76
2023-12-15T16:18:02.150Z,94.01
2023-12-15T16:24:06.281Z,94.47
2023-12-15T16:30:09.584Z,94.11
2023-12-15T16:36:24.987Z,94.01
2023-12-15T16:42:27.432Z,94.70
2023-12-15T16:48:29.900Z,94.16
2023-12-15T16:54:39.918Z,94.57
2023-12-15T17:00:42.927Z,94.29
2023-12-15T17:06:48.326Z,94.34
2023-12-15T17:12:50.804Z,94.46
2023-12-15T17:18:53.363Z,94.64
2023-12-15T17:24:55.727Z,94.86
2023-12-15T17:30:58.211Z,95.06
2023-12-15T17:37:00.664Z,96.71
2023-12-15T17:43:03.120Z,98.64
2023-12-15T17:49:07.059Z,97.56
2023-12-15T17:55:14.133Z,96.81
2023-12-15T18:01:18.859Z,94.39
2023-12-15T18:07:23.044Z,91.50
2023-12-15T18:13:28.485Z,92.71
2023-12-15T18:19:33.989Z,92.24
2023-12-15T18:25:37.498Z,91.87
2023-12-15T18:31:42.958Z,87.56
2023-12-15T18:37:45.389Z,87.42
2023-12-15T18:43:47.846Z,83.92
2023-12-15T18:49:50.365Z,83.34
2023-12-15T18:55:52.796Z,84.47
2023-12-15T19:01:55.323Z,82.82
2023-12-15T19:07:57.727Z,79.84
2023-12-15T19:14:00.303Z,83.05
2023-12-15T19:20:02.655Z,79.48
2023-12-15T19:26:09.170Z,81.05
2023-12-15T19:32:12.658Z,80.00
2023-12-15T19:38:16.133Z,80.77
2023-12-15T19:44:18.583Z,81.49
2023-12-15T19:50:25.542Z,83.14
2023-12-15T19:56:30.513Z,84.15
2023-12-15T20:02:32.982Z,85.58
2023-12-15T20:08:36.468Z,86.66
2023-12-15T20:14:38.938Z,87.86
2023-12-15T20:20:43.653Z,87.87
2023-12-15T20:26:47.873Z,87.75
2023-12-15T20:32:50.456Z,86.19
2023-12-15T20:38:54.762Z,86.00
2023-12-15T20:44:57.223Z,85.80
2023-12-15T20:50:59.790Z,85.34
2023-12-15T20:57:02.132Z,85.09
2023-12-15T21:03:04.668Z,84.58
2023-12-15T21:09:08.031Z,84.71
2023-12-15T21:15:11.518Z,83.58
2023-12-15T21:21:15.007Z,83.46
2023-12-15T21:27:17.437Z,83.85
2023-12-15T21:33:20.070Z,83.49
2023-12-15T21:39:22.402Z,83.42
2023-12-15T21:45:27.868Z,83.22
2023-12-15T21:51:32.317Z,82.98
2023-12-15T21:57:34.932Z,82.68
2023-12-15T22:03:41.309Z,82.56
2023-12-15T22:09:43.728Z,82.29
2023-12-15T22:15:48.112Z,81.88
2023-12-15T22:21:52.684Z,82.20
2023-12-15T22:27:55.191Z,82.05
2023-12-15T22:33:57.704Z,82.04
2023-12-15T22:40:04.681Z,81.55
2023-12-15T22:46:09.605Z,81.85
2023-12-15T22:52:12.065Z,81.77
2023-12-15T22:58:14.536Z,82.00
2023-12-15T23:04:28.130Z,82.40
2023-12-15T23:10:31.596Z,81.98
2023-12-15T23:16:35.045Z,81.94
2023-12-15T23:22:47.547Z,81.96
2023-12-15T23:28:50.038Z,82.47
2023-12-15T23:34:52.433Z,83.04
2023-12-15T23:40:55.361Z,82.86
2023-12-15T23:47:00.343Z,82.75
2023-12-15T23:53:02.834Z,82.96
2023-12-15T23:59:05.269Z,84.90
